PDT,Max TemperatureF,Mean TemperatureF,Min TemperatureF,Max Dew PointF,MeanDew PointF,Min DewpointF,Max Humidity, Mean Humidity, Min Humidity, Max Sea Level PressureIn, Mean Sea Level PressureIn, Min Sea Level PressureIn, Max VisibilityMiles, Mean VisibilityMiles, Min VisibilityMiles, Max Wind SpeedMPH, Mean Wind SpeedMPH, Max Gust SpeedMPH,PrecipitationIn, CloudCover, Events, WindDirDegrees
2013-3-1,73,56,39,47,44,40,100,66,34,30.43,30.33,30.26,10,10,10,7,2,,0.00,0,,198
2013-3-2,69,57,45,51,47,42,93,69,47,30.26,30.16,30.07,10,10,10,9,1,,0.00,1,,199
2013-3-3,66,58,50,51,47,43,77,66,49,30.08,30.04,30.01,10,10,10,10,5,,0.00,5,,216
2013-3-4,64,54,44,48,44,34,93,71,54,30.14,30.07,30.03,10,10,10,8,5,,0.00,0,,222
2013-3-5,57,50,44,45,39,30,86,63,52,30.03,29.95,29.83,10,10,10,20,9,26,0.13,2,Rain,207
2013-3-6,55,47,37,46,41,35,93,74,47,30.06,29.96,29.85,10,10,10,18,12,31,0.08,4,Rain,215
2013-3-7,57,46,35,37,36,34,96,68,44,30.02,29.94,29.88,10,10,10,10,3,,0.00,2,,354
2013-3-8,66,51,36,42,36,28,93,64,25,30.02,29.88,29.83,10,10,10,13,2,22,0.00,0,,250
2013-3-9,71,55,39,42,32,23,93,54,17,30.29,30.23,30.06,10,10,10,17,4,25,0.00,0,,325
2013-3-10,69,53,37,42,36,29,82,56,25,30.38,30.30,30.25,10,10,10,7,3,,0.00,0,,98
2013-3-11,73,54,37,46,41,35,89,63,35,30.27,30.20,30.10,10,10,10,6,1,,0.00,0,,213
2013-3-12,75,57,39,50,45,39,97,69,38,30.18,30.12,30.07,10,10,10,6,1,,0.00,0,,135
2013-3-13,78,60,44,52,49,44,100,71,37,30.19,30.13,30.08,10,10,9,5,1,,0.00,0,,327
2013-3-14,75,60,46,56,50,45,93,70,48,30.16,30.11,30.08,10,10,10,6,0,,0.00,0,,140
2013-3-15,78,62,46,50,46,41,90,62,29,30.12,30.07,30.01,10,10,10,7,2,,0.00,0,,204
2013-3-16,78,61,45,48,44,37,93,58,32,30.08,30.03,29.98,10,10,10,18,3,25,0.00,0,,274
2013-3-17,72,56,42,44,38,30,86,52,23,30.15,30.08,30.03,10,10,10,10,4,,0.00,0,,215
2013-3-18,69,55,41,44,40,37,89,57,31,30.12,30.06,30.02,10,10,10,8,2,,0.00,1,,196
2013-3-19,69,58,46,47,43,36,90,65,39,30.13,30.09,30.05,10,10,9,15,2,23,0.02,5,Rain,194
2013-3-20,62,54,48,55,51,45,94,87,72,30.13,30.10,30.08,10,9,2,16,7,23,0.07,6,Rain,210
2013-3-21,69,54,41,48,33,20,93,51,17,30.13,30.08,30.01,10,10,10,12,5,22,0.01,0,,334
2013-3-22,68,57,48,26,16,12,33,19,14,30.12,30.07,30.04,10,10,10,22,13,32,0.00,0,,348
2013-3-23,70,56,43,41,25,17,73,31,15,30.16,30.09,30.04,10,10,10,14,6,22,0.00,0,,331
2013-3-24,73,56,39,46,39,33,89,58,24,30.10,30.03,29.95,10,10,10,8,2,,0.00,0,,211
2013-3-25,66,53,42,46,42,37,92,65,37,30.00,29.95,29.90,10,10,10,16,6,22,0.00,1,,212
2013-3-26,71,58,46,46,43,42,86,61,36,30.00,29.95,29.92,10,10,10,16,9,21,0.00,2,,203
2013-3-27,66,58,50,50,47,43,83,68,54,30.01,29.96,29.93,10,10,10,16,7,23,0.00,2,,223
2013-3-28,71,60,51,51,49,46,89,71,50,30.10,30.06,30.01,10,10,10,8,4,,0.00,4,,249
2013-3-29,77,62,46,51,48,45,93,62,36,30.11,30.07,30.01,10,10,10,9,4,20,0.00,0,,344
2013-3-30,72,62,53,54,50,47,87,69,47,30.05,30.02,29.98,10,10,10,12,3,20,0.04,3,Rain,226
2013-3-31,68,60,53,56,52,48,100,84,49,30.10,30.06,30.00,10,9,2,12,5,29,0.20,7,Rain,173